Time;durP1;ratioP1;P1;durP2;ratioP2;P2;SDS_P1;SDS_P2;PMS_P1;PMS_P2;Temp;Humidity;BMP_temperature;BMP_pressure;BME280_temperature;BME280_humidity;BME280_pressure;Samples;Min_cycle;Max_cycle;Signal;HPM_P1;HPM_P2
2022/06/13 00:02:14;;;;;;;17.15;5.75;;;13.40;99.90;;;;;;5081296;28;20036;-77
2022/06/13 00:04:39;;;;;;;16.98;6.85;;;13.40;99.90;;;;;;5081732;28;20475;-75
2022/06/13 00:07:05;;;;;;;25.38;5.65;;;13.40;99.90;;;;;;5079382;28;20037;-77
2022/06/13 00:09:31;;;;;;;20.20;5.18;;;13.40;99.90;;;;;;5090716;28;20413;-77
2022/06/13 00:11:56;;;;;;;13.25;4.60;;;13.30;99.90;;;;;;5084647;28;20043;-77
2022/06/13 00:14:22;;;;;;;11.25;4.32;;;13.40;99.90;;;;;;5082720;28;20106;-77
2022/06/13 00:16:48;;;;;;;14.23;4.80;;;13.30;99.90;;;;;;5081448;28;20336;-77
2022/06/13 00:19:13;;;;;;;14.48;5.47;;;13.40;99.90;;;;;;5083633;28;20386;-77
2022/06/13 00:21:39;;;;;;;10.55;4.82;;;13.30;99.90;;;;;;5079949;28;20094;-76
2022/06/13 00:24:07;;;;;;;20.13;5.90;;;13.30;99.90;;;;;;5078829;28;20245;-76
2022/06/13 00:26:34;;;;;;;17.55;4.70;;;13.30;99.90;;;;;;5077046;28;20040;-75
2022/06/13 00:29:01;;;;;;;17.00;6.38;;;13.30;99.90;;;;;;5082270;28;20075;-76
2022/06/13 00:31:27;;;;;;;14.10;5.03;;;13.40;99.90;;;;;;5082424;28;20051;-78
2022/06/13 00:33:52;;;;;;;13.32;5.47;;;13.40;99.90;;;;;;5083113;28;20650;-75
2022/06/13 00:36:21;;;;;;;10.07;4.90;;;13.30;99.90;;;;;;5080169;28;20061;-76
2022/06/13 00:38:48;;;;;;;18.70;5.55;;;13.40;99.90;;;;;;5072102;28;20047;-76
2022/06/13 00:41:30;;;;;;;20.25;8.15;;;13.40;99.90;;;;;;5081786;28;20044;-77
2022/06/13 00:43:56;;;;;;;14.60;5.18;;;13.30;99.90;;;;;;5082229;28;20078;-76
2022/06/13 00:46:28;;;;;;;15.68;6.68;;;13.30;99.90;;;;;;5068988;28;20764;-76
2022/06/13 00:49:00;;;;;;;12.45;5.60;;;13.30;99.90;;;;;;5081760;28;20063;-76
2022/06/13 00:51:28;;;;;;;15.55;4.85;;;13.30;99.90;;;;;;5081457;28;20040;-75
2022/06/13 00:53:54;;;;;;;26.08;6.00;;;13.20;99.90;;;;;;5094482;28;20426;-75
2022/06/13 00:56:23;;;;;;;15.30;7.22;;;13.30;99.90;;;;;;5084481;28;20046;-75
2022/06/13 00:58:56;;;;;;;12.98;5.50;;;13.30;99.90;;;;;;5064744;28;20098;-75
2022/06/13 01:01:22;;;;;;;21.08;6.47;;;13.30;99.90;;;;;;5066232;28;20048;-75
2022/06/13 01:03:48;;;;;;;18.58;6.70;;;13.30;99.90;;;;;;5086608;28;20387;-76
2022/06/13 01:06:14;;;;;;;16.95;6.82;;;13.30;99.90;;;;;;5085922;28;20076;-75
2022/06/13 01:08:40;;;;;;;17.23;7.13;;;13.20;99.90;;;;;;5067688;28;20263;-75
2022/06/13 01:11:17;;;;;;;25.73;6.78;;;13.30;99.90;;;;;;5082458;28;20143;-76
2022/06/13 01:14:14;;;;;;;11.25;5.70;;;13.20;99.90;;;;;;5066012;28;20063;-76
2022/06/13 01:17:14;;;;;;;15.65;7.57;;;13.20;99.90;;;;;;5084634;28;20089;-76
2022/06/13 01:20:02;;;;;;;14.70;6.20;;;13.20;99.90;;;;;;5070660;28;20050;-76
2022/06/13 01:22:39;;;;;;;21.13;7.25;;;13.20;99.90;;;;;;5085911;28;20472;-76
2022/06/13 01:25:27;;;;;;;14.32;6.32;;;13.10;99.90;;;;;;5087441;28;20047;-76
2022/06/13 01:28:07;;;;;;;13.85;5.53;;;13.10;99.90;;;;;;5081921;28;20136;-76
2022/06/13 01:30:51;;;;;;;17.70;6.80;;;13.10;99.90;;;;;;5084797;28;20177;-76
2022/06/13 01:33:38;;;;;;;21.42;7.28;;;13.10;99.90;;;;;;5066097;28;20127;-76
2022/06/13 01:36:04;;;;;;;20.30;6.90;;;13.10;99.90;;;;;;5083743;28;20044;-76
2022/06/13 01:38:38;;;;;;;15.13;6.18;;;13.10;99.90;;;;;;5064010;28;20448;-76
2022/06/13 01:41:24;;;;;;;22.13;5.97;;;13.10;99.90;;;;;;5064110;28;20271;-77
2022/06/13 01:44:11;;;;;;;15.13;6.40;;;13.00;99.90;;;;;;5074984;28;20040;-76
2022/06/13 01:47:04;;;;;;;21.45;8.50;;;13.00;99.90;;;;;;5080469;28;20036;-76
2022/06/13 01:49:44;;;;;;;18.85;6.22;;;12.90;99.90;;;;;;5084402;28;20051;-76
2022/06/13 01:52:12;;;;;;;17.33;6.75;;;12.90;99.90;;;;;;5082760;28;20044;-76
2022/06/13 01:54:53;;;;;;;23.40;8.07;;;12.90;99.90;;;;;;5084249;28;20304;-76
2022/06/13 01:57:26;;;;;;;15.70;6.57;;;12.90;99.90;;;;;;5072501;28;20066;-76
2022/06/13 01:59:58;;;;;;;17.08;7.78;;;12.90;99.90;;;;;;5084043;28;20076;-77
2022/06/13 02:02:53;;;;;;;19.17;7.55;;;12.90;99.90;;;;;;5083543;28;20032;-76
2022/06/13 02:05:19;;;;;;;14.82;6.85;;;12.90;99.90;;;;;;5083890;28;20051;-76
2022/06/13 02:07:52;;;;;;;19.80;7.10;;;13.00;99.90;;;;;;5064388;28;20119;-76
2022/06/13 02:10:27;;;;;;;17.20;7.72;;;13.00;99.90;;;;;;5093763;28;20044;-77
2022/06/13 02:12:57;;;;;;;16.45;7.18;;;13.00;99.90;;;;;;5082149;28;20043;-75
2022/06/13 02:15:28;;;;;;;18.95;8.20;;;13.00;99.90;;;;;;5084112;28;20119;-76
2022/06/13 02:17:59;;;;;;;18.63;7.78;;;13.00;99.90;;;;;;5081863;28;20379;-76
2022/06/13 02:20:34;;;;;;;25.45;8.80;;;13.10;99.90;;;;;;5083735;28;20048;-77
2022/06/13 02:23:11;;;;;;;14.80;8.07;;;13.00;99.90;;;;;;5082759;28;20118;-76
2022/06/13 02:25:45;;;;;;;18.48;7.97;;;13.10;99.90;;;;;;5082356;28;20042;-77
2022/06/13 02:28:34;;;;;;;18.95;8.77;;;13.20;99.90;;;;;;5081354;28;20440;-76
2022/06/13 02:31:03;;;;;;;21.40;9.38;;;13.10;99.90;;;;;;5066656;28;20066;-77
2022/06/13 02:33:37;;;;;;;15.65;7.47;;;13.20;99.90;;;;;;5082832;28;20048;-76
2022/06/13 02:36:17;;;;;;;23.98;9.25;;;13.20;99.90;;;;;;5064066;28;20066;-76
2022/06/13 02:38:53;;;;;;;22.65;9.25;;;13.20;99.90;;;;;;5090911;28;20051;-76
2022/06/13 02:41:22;;;;;;;30.55;9.77;;;13.20;99.90;;;;;;5082762;28;20097;-76
2022/06/13 02:44:03;;;;;;;18.05;8.57;;;13.20;99.90;;;;;;5066507;28;20036;-76
2022/06/13 02:46:34;;;;;;;15.43;7.70;;;13.20;99.90;;;;;;5062523;28;20491;-76
2022/06/13 02:49:18;;;;;;;15.60;6.85;;;13.20;99.90;;;;;;5065262;28;20055;-75
2022/06/13 02:51:58;;;;;;;19.05;8.50;;;13.20;99.90;;;;;;5083357;28;20075;-76
2022/06/13 02:54:26;;;;;;;25.35;6.57;;;13.30;99.90;;;;;;5072829;28;20036;-76
2022/06/13 02:57:23;;;;;;;17.13;7.50;;;13.20;99.90;;;;;;5079645;28;20040;-76
2022/06/13 03:00:17;;;;;;;15.75;5.72;;;13.20;99.90;;;;;;5082420;28;20040;-76
2022/06/13 03:03:13;;;;;;;23.35;9.15;;;13.20;99.90;;;;;;5065585;28;20048;-76
2022/06/13 03:05:49;;;;;;;13.30;6.38;;;13.30;99.90;;;;;;5081670;28;20050;-76
2022/06/13 03:08:33;;;;;;;14.95;6.10;;;13.30;99.90;;;;;;5096380;28;20108;-76
2022/06/13 03:11:06;;;;;;;14.73;6.18;;;13.30;99.90;;;;;;5065680;28;20088;-76
2022/06/13 03:13:36;;;;;;;13.43;4.22;;;13.30;99.90;;;;;;5046019;28;20122;-76
2022/06/13 03:16:25;;;;;;;12.30;5.40;;;13.30;99.90;;;;;;5049547;28;20125;-78
2022/06/13 03:18:57;;;;;;;15.48;5.60;;;13.30;99.90;;;;;;5063751;28;20056;-75
2022/06/13 03:21:32;;;;;;;11.60;5.18;;;13.30;99.90;;;;;;5073460;28;20847;-75
2022/06/13 03:24:05;;;;;;;13.13;4.38;;;13.30;99.90;;;;;;5084855;28;20122;-76
2022/06/13 03:26:37;;;;;;;11.07;4.32;;;13.30;99.90;;;;;;5078971;28;20502;-76
2022/06/13 03:29:17;;;;;;;8.10;4.15;;;13.30;99.90;;;;;;5081389;28;20055;-76
2022/06/13 03:31:48;;;;;;;6.32;3.33;;;13.30;99.90;;;;;;5083193;28;20047;-76
2022/06/13 03:34:32;;;;;;;11.68;4.40;;;13.30;99.90;;;;;;5082825;28;20086;-76
2022/06/13 03:37:07;;;;;;;15.05;4.28;;;13.30;99.90;;;;;;5090050;28;20067;-76
2022/06/13 03:39:49;;;;;;;7.22;2.97;;;13.30;99.90;;;;;;5082952;28;20040;-76
2022/06/13 03:42:20;;;;;;;9.82;2.58;;;13.40;99.90;;;;;;5081517;28;20085;-77
2022/06/13 03:44:56;;;;;;;7.50;2.88;;;13.40;99.90;;;;;;5082629;28;20040;-76
2022/06/13 03:47:28;;;;;;;10.07;3.05;;;13.40;99.90;;;;;;5074589;28;20111;-77
2022/06/13 03:49:59;;;;;;;4.38;1.65;;;13.50;99.90;;;;;;5064234;28;20055;-75
2022/06/13 03:52:27;;;;;;;5.50;1.90;;;13.40;99.90;;;;;;5062963;28;20036;-76
2022/06/13 03:55:35;;;;;;;8.23;2.42;;;13.50;99.90;;;;;;5075677;28;20118;-76
2022/06/13 03:58:10;;;;;;;4.97;2.55;;;13.40;99.90;;;;;;5014526;28;20041;-75
2022/06/13 04:01:04;;;;;;;5.97;2.10;;;13.40;99.90;;;;;;5020196;28;20499;-76
2022/06/13 04:03:30;;;;;;;3.83;1.98;;;13.40;99.90;;;;;;5028073;28;20071;-77
2022/06/13 04:06:23;;;;;;;8.45;1.77;;;13.50;99.90;;;;;;5079303;28;20044;-77
2022/06/13 04:08:49;;;;;;;6.05;1.83;;;13.50;99.90;;;;;;5063430;28;20384;-76
2022/06/13 04:11:15;;;;;;;9.05;3.35;;;13.50;99.90;;;;;;5081992;28;20043;-77
2022/06/13 04:13:51;;;;;;;4.75;2.03;;;13.50;99.90;;;;;;5078648;28;20195;-76
2022/06/13 04:16:19;;;;;;;7.47;2.55;;;13.50;99.90;;;;;;5083863;28;20048;-78
2022/06/13 04:18:54;;;;;;;7.90;1.77;;;13.50;99.90;;;;;;5061788;28;20059;-77
2022/06/13 04:21:37;;;;;;;5.68;2.75;;;13.40;99.90;;;;;;5068541;28;20254;-75
2022/06/13 04:24:18;;;;;;;7.88;1.83;;;13.40;99.90;;;;;;5086193;28;20403;-75
2022/06/13 04:26:53;;;;;;;5.70;1.73;;;13.40;99.90;;;;;;5065310;28;20051;-76
2022/06/13 04:29:28;;;;;;;12.05;3.83;;;13.70;99.90;;;;;;5084050;28;20036;-74
2022/06/13 04:32:02;;;;;;;12.60;2.53;;;14.20;99.90;;;;;;5084661;28;20043;-76
2022/06/13 04:34:33;;;;;;;7.40;1.75;;;14.00;99.90;;;;;;5058806;28;20356;-75
2022/06/13 04:37:01;;;;;;;8.57;2.05;;;14.60;99.90;;;;;;5083665;28;20102;-75
2022/06/13 04:39:29;;;;;;;6.97;2.60;;;14.60;99.90;;;;;;5051798;28;20065;-75
2022/06/13 04:41:57;;;;;;;11.52;3.58;;;14.30;99.90;;;;;;5074033;28;20040;-76
2022/06/13 04:44:25;;;;;;;17.05;3.22;;;14.20;99.90;;;;;;5088343;28;20040;-75
2022/06/13 04:46:52;;;;;;;11.15;2.35;;;14.00;99.90;;;;;;5068911;28;20048;-76
2022/06/13 04:49:27;;;;;;;4.63;1.88;;;13.90;99.90;;;;;;5068617;28;20040;-75
2022/06/13 04:51:55;;;;;;;2.67;0.80;;;13.70;99.90;;;;;;5085961;28;20406;-75
2022/06/13 04:54:34;;;;;;;2.03;0.40;;;13.50;99.90;;;;;;5084758;28;20127;-75
2022/06/13 04:57:01;;;;;;;4.33;0.93;;;13.10;99.90;;;;;;5081665;28;20059;-77
2022/06/13 04:59:28;;;;;;;2.58;0.85;;;13.10;99.90;;;;;;5086215;28;20458;-76
2022/06/13 05:01:56;;;;;;;1.00;0.40;;;12.90;99.90;;;;;;5088670;28;20036;-76
2022/06/13 05:04:29;;;;;;;6.05;1.02;;;12.70;99.90;;;;;;5088116;28;20361;-76
2022/06/13 05:06:59;;;;;;;2.78;0.52;;;12.80;99.90;;;;;;5058285;28;20200;-76
2022/06/13 05:09:42;;;;;;;2.13;1.08;;;12.70;99.90;;;;;;5086206;28;20043;-76
2022/06/13 05:12:15;;;;;;;1.92;0.85;;;12.80;99.90;;;;;;5065696;28;20080;-75
2022/06/13 05:14:43;;;;;;;2.58;1.10;;;12.90;99.90;;;;;;5065896;28;20043;-76
2022/06/13 05:17:29;;;;;;;4.50;1.35;;;12.80;99.90;;;;;;5081003;28;20041;-77
2022/06/13 05:20:21;;;;;;;5.22;2.17;;;13.00;99.90;;;;;;5080093;28;20704;-78
2022/06/13 05:23:18;;;;;;;7.15;2.00;;;13.00;99.90;;;;;;5068263;28;20127;-82
2022/06/13 05:25:49;;;;;;;7.22;1.42;;;13.20;99.90;;;;;;5052701;28;20498;-80
2022/06/13 05:28:19;;;;;;;3.03;1.63;;;13.20;99.90;;;;;;5064458;28;20044;-78
2022/06/13 05:30:48;;;;;;;5.75;1.40;;;13.40;99.90;;;;;;5082652;28;20146;-77
2022/06/13 05:33:19;;;;;;;7.70;2.22;;;13.30;99.90;;;;;;5056516;28;20043;-77
2022/06/13 05:35:46;;;;;;;5.10;1.70;;;13.40;99.90;;;;;;5085909;28;20106;-77
2022/06/13 05:38:31;;;;;;;4.97;1.80;;;13.50;99.90;;;;;;5085685;28;20457;-77
2022/06/13 05:40:57;;;;;;;3.13;0.95;;;13.60;99.90;;;;;;5096944;28;20051;-77
2022/06/13 05:43:23;;;;;;;5.82;1.73;;;13.80;99.90;;;;;;5082777;28;20368;-77
2022/06/13 05:45:49;;;;;;;7.28;1.30;;;13.90;99.90;;;;;;5061594;28;20141;-76
2022/06/13 05:48:17;;;;;;;10.65;2.03;;;14.10;99.90;;;;;;5085059;28;20043;-77
2022/06/13 05:50:43;;;;;;;9.77;1.90;;;14.20;99.90;;;;;;5066174;28;20051;-77
2022/06/13 05:53:12;;;;;;;6.80;1.33;;;14.30;99.90;;;;;;5064679;28;20216;-77
2022/06/13 05:55:38;;;;;;;10.43;2.08;;;14.40;99.90;;;;;;5089112;28;20040;-77
2022/06/13 05:58:04;;;;;;;8.68;1.40;;;14.60;99.90;;;;;;5084987;28;20090;-76
2022/06/13 06:00:41;;;;;;;5.22;1.52;;;14.50;99.90;;;;;;5084694;28;20093;-77
2022/06/13 06:03:07;;;;;;;3.80;1.70;;;14.60;99.90;;;;;;5085091;28;20036;-77
2022/06/13 06:05:33;;;;;;;8.10;1.42;;;14.70;99.90;;;;;;5062591;28;20096;-78
2022/06/13 06:07:58;;;;;;;5.68;1.27;;;14.80;99.90;;;;;;5078153;28;20441;-77
2022/06/13 06:10:30;;;;;;;6.10;1.15;;;14.70;99.90;;;;;;5078026;28;20044;-77
2022/06/13 06:12:56;;;;;;;4.45;1.73;;;14.60;99.90;;;;;;5083057;28;20105;-77
2022/06/13 06:15:21;;;;;;;7.13;1.83;;;14.40;99.90;;;;;;5082610;28;20435;-78
2022/06/13 06:17:47;;;;;;;4.80;1.48;;;14.30;99.90;;;;;;5066721;28;20040;-78
2022/06/13 06:20:18;;;;;;;7.50;1.98;;;14.30;99.90;;;;;;5066361;28;20120;-77
2022/06/13 06:22:44;;;;;;;4.80;1.77;;;14.30;99.90;;;;;;5081602;28;20044;-77
2022/06/13 06:25:10;;;;;;;6.88;1.90;;;14.30;99.90;;;;;;5082656;28;20047;-76
2022/06/13 06:27:36;;;;;;;5.15;1.27;;;14.20;99.90;;;;;;5083020;28;20044;-78
2022/06/13 06:30:02;;;;;;;6.90;1.27;;;14.10;99.90;;;;;;5067947;28;20100;-77
2022/06/13 06:32:28;;;;;;;4.95;1.70;;;14.00;99.90;;;;;;5065263;28;20112;-78
2022/06/13 06:34:53;;;;;;;6.25;1.48;;;14.10;99.90;;;;;;5081191;28;20181;-78
2022/06/13 06:37:19;;;;;;;5.15;1.10;;;14.20;99.90;;;;;;5084838;28;20075;-78
2022/06/13 06:39:45;;;;;;;4.90;1.15;;;14.40;99.90;;;;;;5084205;28;20039;-79
2022/06/13 06:42:10;;;;;;;4.57;1.77;;;14.40;99.90;;;;;;5065169;28;20090;-78
2022/06/13 06:44:36;;;;;;;6.40;1.13;;;14.30;99.90;;;;;;5082102;28;20044;-79
2022/06/13 06:47:02;;;;;;;6.32;1.38;;;14.30;99.90;;;;;;5066048;28;20044;-77
2022/06/13 06:49:32;;;;;;;10.93;1.42;;;14.60;99.90;;;;;;5065454;28;20052;-78
2022/06/13 06:51:58;;;;;;;;;;;14.70;99.90;;;;;;5084899;28;20059;-80
2022/06/13 06:59:55;;;;;;;5.00;1.50;;;15.80;99.90;;;;;;5105622;28;20470;-82
2022/06/13 07:02:26;;;;;;;11.70;1.83;;;16.80;99.90;;;;;;5095365;28;20110;-80
2022/06/13 07:04:54;;;;;;;12.73;1.48;;;17.40;99.90;;;;;;5065053;28;20044;-81
2022/06/13 07:07:20;;;;;;;3.75;1.10;;;18.10;99.90;;;;;;5089138;28;20050;-77
2022/06/13 07:09:47;;;;;;;7.57;2.95;;;18.80;99.90;;;;;;5083801;28;20035;-79
2022/06/13 07:12:13;;;;;;;4.43;1.77;;;19.10;99.90;;;;;;5079975;28;20116;-81
2022/06/13 07:14:39;;;;;;;7.32;1.30;;;18.90;99.90;;;;;;5064490;28;20048;-80
2022/06/13 07:17:06;;;;;;;4.40;1.10;;;18.50;99.90;;;;;;5084693;28;20059;-80
2022/06/13 07:19:33;;;;;;;3.75;1.05;;;18.10;99.90;;;;;;5083812;28;20059;-81
2022/06/13 07:21:59;;;;;;;8.93;1.27;;;17.90;99.90;;;;;;5100391;28;21167;-79
2022/06/13 07:24:26;;;;;;;3.42;0.90;;;18.50;99.90;;;;;;5082774;28;20044;-81
2022/06/13 07:26:52;;;;;;;6.65;1.20;;;18.80;99.90;;;;;;5064308;28;20724;-79
2022/06/13 07:29:18;;;;;;;5.40;0.98;;;18.80;99.90;;;;;;5081035;28;20051;-79
2022/06/13 07:31:47;;;;;;;8.30;1.25;;;18.70;99.90;;;;;;5079278;28;20123;-79
2022/06/13 07:34:18;;;;;;;7.50;1.67;;;17.60;99.90;;;;;;5078156;28;20072;-80
2022/06/13 07:36:45;;;;;;;4.63;1.02;;;17.90;99.90;;;;;;5083192;28;20079;-80
2022/06/13 07:39:11;;;;;;;8.20;1.23;;;17.50;99.90;;;;;;5064925;28;20048;-79
2022/06/13 07:41:38;;;;;;;5.80;1.60;;;18.90;99.90;;;;;;5079886;28;20406;-78
2022/06/13 07:44:05;;;;;;;5.85;1.00;;;19.30;99.90;;;;;;5080470;28;20054;-77
2022/06/13 07:46:32;;;;;;;12.02;1.33;;;20.10;99.90;;;;;;5080670;28;20040;-77
2022/06/13 07:48:58;;;;;;;3.63;0.90;;;20.60;99.90;;;;;;5063912;28;20048;-77
2022/06/13 07:51:25;;;;;;;8.57;1.25;;;19.40;99.90;;;;;;5064489;28;20056;-77
2022/06/13 07:53:51;;;;;;;5.50;2.13;;;18.10;99.90;;;;;;5082224;28;20092;-78
2022/06/13 07:56:21;;;;;;;2.80;0.77;;;17.10;99.90;;;;;;5097124;28;20805;-77
2022/06/13 07:58:49;;;;;;;4.15;0.73;;;17.10;99.90;;;;;;5085287;28;20050;-77
2022/06/13 08:01:16;;;;;;;7.13;2.75;;;17.10;99.90;;;;;;5096804;28;20447;-78
2022/06/13 08:03:42;;;;;;;8.45;2.15;;;16.80;99.90;;;;;;5061018;28;20048;-80
2022/06/13 08:06:08;;;;;;;5.95;1.27;;;16.70;99.90;;;;;;5082282;28;20131;-79
2022/06/13 08:08:37;;;;;;;7.78;1.10;;;16.80;99.90;;;;;;5083551;28;20460;-79
2022/06/13 08:11:06;;;;;;;4.82;1.00;;;16.80;99.90;;;;;;5084444;28;20141;-76
2022/06/13 08:13:33;;;;;;;6.53;1.63;;;16.70;99.90;;;;;;5087151;28;20040;-81
2022/06/13 08:15:59;;;;;;;6.55;1.13;;;17.10;99.90;;;;;;5087827;28;20384;-81
2022/06/13 08:18:25;;;;;;;6.25;0.80;;;17.60;99.90;;;;;;5100056;28;20042;-83
2022/06/13 08:20:51;;;;;;;4.75;1.63;;;17.20;99.90;;;;;;5084829;28;20084;-81
2022/06/13 08:23:19;;;;;;;6.60;0.80;;;16.80;99.90;;;;;;5081151;28;20041;-80
2022/06/13 08:25:47;;;;;;;11.77;1.65;;;16.20;99.90;;;;;;5082784;28;20035;-80
2022/06/13 08:28:15;;;;;;;2.75;0.50;;;16.10;99.90;;;;;;5061239;28;20397;-81
2022/06/13 08:30:54;;;;;;;5.18;0.70;;;16.80;99.90;;;;;;5083527;28;20078;-83
2022/06/13 08:33:20;;;;;;;2.65;0.70;;;17.30;99.90;;;;;;5066821;28;20040;-76
2022/06/13 08:35:47;;;;;;;7.95;1.52;;;17.10;99.90;;;;;;5062913;28;20048;-79
2022/06/13 08:38:13;;;;;;;5.22;2.03;;;16.90;99.90;;;;;;5085797;28;20044;-80
2022/06/13 08:40:44;;;;;;;6.40;1.20;;;16.80;99.90;;;;;;5085123;28;20151;-76
2022/06/13 08:43:23;;;;;;;7.97;2.55;;;16.30;99.90;;;;;;5049564;28;20036;-79
2022/06/13 08:46:02;;;;;;;4.00;1.65;;;17.10;99.90;;;;;;5079933;28;20043;-78
2022/06/13 08:48:40;;;;;;;5.07;1.20;;;17.20;99.90;;;;;;5048466;28;20146;-80
2022/06/13 08:51:12;;;;;;;9.60;1.40;;;17.00;99.90;;;;;;5082784;28;20048;-79
2022/06/13 08:53:56;;;;;;;6.97;1.83;;;16.70;99.90;;;;;;5084384;28;20080;-79
2022/06/13 08:56:27;;;;;;;5.28;1.48;;;16.50;99.90;;;;;;5082941;28;20040;-78
2022/06/13 08:59:22;;;;;;;6.70;1.27;;;16.40;99.90;;;;;;5066524;28;20044;-78
2022/06/13 09:02:01;;;;;;;5.38;1.00;;;16.20;99.90;;;;;;5084585;28;20036;-79
2022/06/13 09:04:36;;;;;;;9.15;1.52;;;15.90;99.90;;;;;;5066338;28;20478;-78
2022/06/13 09:07:22;;;;;;;5.60;1.30;;;16.50;99.90;;;;;;5085976;28;20086;-78
2022/06/13 09:10:13;;;;;;;14.73;3.65;;;17.20;99.90;;;;;;5083999;28;20047;-78
2022/06/13 09:13:02;;;;;;;9.00;1.25;;;17.50;99.90;;;;;;5099867;28;20561;-79
2022/06/13 09:15:57;;;;;;;17.45;2.95;;;17.60;99.90;;;;;;5103474;28;20069;-81
2022/06/13 09:18:50;;;;;;;4.78;1.52;;;17.20;99.90;;;;;;5063115;28;20052;-78
2022/06/13 09:21:26;;;;;;;10.07;1.63;;;16.70;99.90;;;;;;5084723;28;20044;-76
2022/06/13 09:24:06;;;;;;;9.05;2.30;;;16.50;99.90;;;;;;5082587;28;20032;-78
2022/06/13 09:26:41;;;;;;;;;;;16.90;99.90;;;;;;5080871;28;20040;-77
2022/06/13 09:29:25;;;;;;;5.43;0.77;;;17.20;99.90;;;;;;5077761;28;19927;-78
2022/06/13 09:32:15;;;;;;;13.25;2.35;;;16.90;99.90;;;;;;5072747;28;20112;-77
2022/06/13 09:34:47;;;;;;;10.20;2.10;;;16.80;99.90;;;;;;5076647;28;20101;-76
2022/06/13 09:37:21;;;;;;;4.90;1.10;;;16.60;99.90;;;;;;5050078;28;20497;-74
2022/06/13 09:39:48;;;;;;;7.30;2.05;;;16.40;99.90;;;;;;5086259;28;20546;-75
2022/06/13 09:42:14;;;;;;;7.32;2.38;;;16.70;99.90;;;;;;5092121;28;20089;-75
2022/06/13 09:45:06;;;;;;;10.60;2.47;;;17.20;99.90;;;;;;5085339;28;20405;-75
2022/06/13 09:47:50;;;;;;;6.97;1.35;;;17.70;99.90;;;;;;5064546;28;20040;-76
2022/06/13 09:50:34;;;;;;;6.07;1.60;;;17.20;99.90;;;;;;5081355;28;20583;-76
2022/06/13 09:53:28;;;;;;;6.20;0.85;;;16.40;99.90;;;;;;5082931;28;20048;-76
2022/06/13 09:56:25;;;;;;;6.85;1.27;;;16.00;99.90;;;;;;5075602;28;20096;-76
2022/06/13 09:58:53;;;;;;;5.65;1.85;;;15.80;99.90;;;;;;5084981;28;20086;-75
2022/06/13 10:01:28;;;;;;;4.25;1.35;;;15.70;99.90;;;;;;5078902;28;20039;-75
2022/06/13 10:04:09;;;;;;;7.95;1.40;;;16.00;99.90;;;;;;5081458;28;20420;-76
2022/06/13 10:06:55;;;;;;;10.80;1.63;;;15.90;99.90;;;;;;5077808;28;20055;-76
2022/06/13 10:09:36;;;;;;;7.93;1.27;;;16.20;99.90;;;;;;5078263;28;20450;-74
2022/06/13 10:12:32;;;;;;;6.65;2.08;;;16.70;99.90;;;;;;5079623;28;20407;-77
2022/06/13 10:15:33;;;;;;;7.70;1.52;;;17.00;99.90;;;;;;5079257;28;20052;-78
2022/06/13 10:18:11;;;;;;;7.65;2.03;;;17.00;99.90;;;;;;5049632;28;20059;-76
2022/06/13 10:20:51;;;;;;;8.10;1.20;;;17.10;99.90;;;;;;5079634;28;20427;-75
2022/06/13 10:23:23;;;;;;;4.65;1.08;;;17.60;99.90;;;;;;5074481;28;20420;-74
2022/06/13 10:26:00;;;;;;;14.35;4.05;;;17.50;99.90;;;;;;5077767;28;20028;-74
2022/06/13 10:28:49;;;;;;;4.97;0.70;;;17.40;99.90;;;;;;5079287;28;20036;-75
2022/06/13 10:31:50;;;;;;;7.47;1.20;;;16.60;99.90;;;;;;5049239;28;20479;-74
2022/06/13 10:34:41;;;;;;;6.40;2.58;;;15.90;99.90;;;;;;5029806;28;20137;-74
2022/06/13 10:37:22;;;;;;;6.95;2.05;;;15.50;99.90;;;;;;5075561;28;20060;-74
2022/06/13 10:39:52;;;;;;;7.15;1.27;;;15.50;99.90;;;;;;5083531;28;20044;-73
2022/06/13 10:42:24;;;;;;;14.38;2.53;;;15.70;99.90;;;;;;5082842;28;20119;-75
2022/06/13 10:44:50;;;;;;;8.18;1.60;;;15.70;99.90;;;;;;5060825;28;20116;-73
2022/06/13 10:47:21;;;;;;;16.52;3.22;;;15.80;99.90;;;;;;5089510;28;20039;-74
2022/06/13 10:49:57;;;;;;;10.13;3.22;;;15.80;99.90;;;;;;5076906;28;20056;-78
2022/06/13 10:52:30;;;;;;;9.00;2.47;;;15.90;99.90;;;;;;5061996;28;20048;-75
2022/06/13 10:55:00;;;;;;;14.60;2.67;;;15.80;99.90;;;;;;5063349;28;20067;-75
2022/06/13 10:57:30;;;;;;;10.25;3.05;;;16.00;99.90;;;;;;5079965;28;20036;-74
2022/06/13 11:00:16;;;;;;;11.52;1.92;;;16.10;99.90;;;;;;5081273;28;20463;-75
2022/06/13 11:02:43;;;;;;;13.90;1.92;;;16.10;99.90;;;;;;5082640;28;20376;-74
2022/06/13 11:05:16;;;;;;;13.05;1.58;;;16.40;99.90;;;;;;5080145;28;20105;-74
2022/06/13 11:07:52;;;;;;;12.68;2.75;;;17.20;99.90;;;;;;5064107;28;20555;-75
2022/06/13 11:10:39;;;;;;;8.68;2.28;;;17.60;99.90;;;;;;5061431;28;20161;-75
2022/06/13 11:13:14;;;;;;;13.07;2.35;;;17.30;99.90;;;;;;5083437;28;20509;-75
2022/06/13 11:24:45;;;;;;;6.13;1.25;;;17.20;99.90;;;;;;5083897;28;20052;-79
2022/06/13 11:27:39;;;;;;;8.93;2.33;;;17.10;99.90;;;;;;5083040;28;20083;-80
2022/06/13 11:30:47;;;;;;;11.02;1.50;;;17.30;99.90;;;;;;5081588;28;20075;-80
2022/06/13 11:33:15;;;;;;;10.35;2.53;;;17.80;99.90;;;;;;5067089;28;20105;-79
2022/06/13 11:35:54;;;;;;;7.53;1.90;;;17.70;99.90;;;;;;5089355;28;20048;-77
2022/06/13 11:38:33;;;;;;;7.53;2.47;;;17.30;99.90;;;;;;5088660;28;20059;-77
2022/06/13 11:41:01;;;;;;;7.38;2.10;;;17.00;99.90;;;;;;5082689;28;20150;-79
2022/06/13 11:43:35;;;;;;;8.57;2.25;;;16.80;99.90;;;;;;5083236;28;20189;-79
2022/06/13 11:46:06;;;;;;;6.22;1.40;;;16.80;99.90;;;;;;5082391;28;20080;-77
2022/06/13 11:48:32;;;;;;;13.05;1.67;;;16.80;99.90;;;;;;5078546;28;20095;-77
2022/06/13 11:51:02;;;;;;;10.23;1.20;;;16.80;99.90;;;;;;5093378;28;20086;-78
2022/06/13 11:53:37;;;;;;;8.40;1.63;;;16.80;99.90;;;;;;5085216;28;20494;-77
2022/06/13 11:56:09;;;;;;;8.27;3.35;;;16.80;99.90;;;;;;5072450;28;21081;-76
2022/06/13 11:58:40;;;;;;;7.47;1.80;;;17.20;99.90;;;;;;5082006;28;20036;-76
2022/06/13 12:01:18;;;;;;;6.13;1.80;;;16.90;99.90;;;;;;5083310;28;20073;-76
2022/06/13 12:03:58;;;;;;;7.38;1.20;;;16.80;99.90;;;;;;5080136;28;20516;-77
2022/06/13 12:06:24;;;;;;;;;;;17.50;99.90;;;;;;5064013;28;20048;-76
2022/06/13 12:09:01;;;;;;;7.53;1.90;;;17.40;99.90;;;;;;5063705;28;19989;-77
2022/06/13 12:11:27;;;;;;;9.65;1.88;;;17.20;99.90;;;;;;5082026;28;20044;-78
2022/06/13 12:13:56;;;;;;;7.38;1.17;;;16.90;99.90;;;;;;5094354;28;20379;-77
2022/06/13 12:16:39;;;;;;;7.22;1.70;;;17.20;99.90;;;;;;5100818;28;20047;-76
2022/06/13 12:19:16;;;;;;;8.98;2.22;;;16.90;99.90;;;;;;5082421;28;20044;-77
2022/06/13 12:22:14;;;;;;;10.82;3.80;;;16.80;99.90;;;;;;5083258;28;20047;-77
2022/06/13 12:24:55;;;;;;;7.82;1.58;;;16.70;99.90;;;;;;5074598;28;20058;-77
2022/06/13 12:27:37;;;;;;;6.80;1.35;;;16.80;99.90;;;;;;5081069;28;20067;-76
2022/06/13 12:30:19;;;;;;;10.55;1.40;;;16.80;99.90;;;;;;5080581;28;20068;-76
2022/06/13 12:32:54;;;;;;;9.77;2.28;;;17.70;99.90;;;;;;5073616;28;20035;-76
2022/06/13 12:35:46;;;;;;;6.68;1.88;;;18.20;99.90;;;;;;5074924;28;20046;-75
2022/06/13 12:38:30;;;;;;;2.95;1.42;;;18.10;99.90;;;;;;5083834;28;20055;-82
2022/06/13 12:41:36;;;;;;;7.10;1.65;;;17.70;99.90;;;;;;5081135;28;20525;-81
2022/06/13 12:44:17;;;;;;;3.72;1.20;;;17.60;99.90;;;;;;5073422;28;20139;-82
2022/06/13 12:46:57;;;;;;;7.63;1.00;;;17.50;99.90;;;;;;5091105;28;20044;-81
2022/06/13 12:49:29;;;;;;;5.10;2.13;;;17.70;99.90;;;;;;5065243;28;20059;-82
2022/06/13 12:52:06;;;;;;;7.15;1.33;;;17.20;99.90;;;;;;5065871;28;20048;-80
2022/06/13 12:54:49;;;;;;;7.72;1.42;;;17.40;99.90;;;;;;5081682;28;20324;-80
2022/06/13 12:57:44;;;;;;;6.63;1.95;;;17.60;99.90;;;;;;5084076;28;20482;-78
2022/06/13 13:00:49;;;;;;;7.40;1.00;;;17.50;99.90;;;;;;5090799;28;20049;-79
2022/06/13 13:03:33;;;;;;;5.75;1.70;;;17.00;99.90;;;;;;5090784;28;20044;-79
2022/06/13 13:06:20;;;;;;;6.43;1.02;;;16.60;99.90;;;;;;5086543;28;20066;-79
2022/06/13 13:09:20;;;;;;;8.88;1.75;;;16.50;99.90;;;;;;5086479;28;20066;-80
2022/06/13 13:11:45;;;;;;;11.35;1.60;;;16.70;99.90;;;;;;5067312;28;20376;-79
2022/06/13 13:14:52;;;;;;;9.63;1.45;;;17.00;99.90;;;;;;5084808;28;20040;-80
2022/06/13 13:17:30;;;;;;;8.30;1.58;;;17.20;99.90;;;;;;5084243;28;20044;-79
2022/06/13 13:20:14;;;;;;;5.85;1.33;;;17.00;99.90;;;;;;5085495;28;20040;-80
2022/06/13 13:23:04;;;;;;;8.18;1.55;;;17.10;99.90;;;;;;5085781;28;20055;-79
2022/06/13 13:25:43;;;;;;;6.03;0.98;;;17.20;99.90;;;;;;5081678;28;20047;-80
2022/06/13 13:28:15;;;;;;;6.50;1.17;;;17.60;99.90;;;;;;5085393;28;20048;-77
2022/06/13 13:31:14;;;;;;;4.47;0.70;;;17.90;99.90;;;;;;5068123;28;20305;-79
2022/06/13 13:33:50;;;;;;;3.90;0.98;;;17.70;99.90;;;;;;5084232;28;20135;-78
2022/06/13 13:36:46;;;;;;;6.35;1.05;;;17.80;99.90;;;;;;5086615;28;20086;-79
2022/06/13 13:39:17;;;;;;;5.80;1.00;;;17.70;99.90;;;;;;5073824;28;20055;-79